KINT

UTC

Smith Reynolds Airport

Winston-Salem, North Carolina, United States

METAR - Current

KINT 221254Z 02009G17KT 10SM SCT009 17/14 A3021 RMK AO2 SLP223 T01720139

Observed

Sep 22 12:54 UTC

Flight Rules

VFR

Wind

020° at 9 KTS
Gusting to 17 KTS

Visibility

10 SM

Clouds

  • Scattered at 900 ft AGL

Temperature

17°C=63°F

Dew Point

14°C=57°F

Humidity

83%

Altimeter

30.21 Hg

Pressure

1023.0 hPa

METAR - Previous

KINT 221245Z 04009G18KT 10SM SCT009 17/13 A3022 RMK AO2 T01670133

Observed

Sep 22 12:45 UTC

Flight Rules

VFR

Wind

040° at 9 KTS
Gusting to 18 KTS

Visibility

10 SM

Clouds

  • Scattered at 900 ft AGL

Temperature

17°C=63°F

Dew Point

13°C=55°F

Humidity

77%

Altimeter

30.22 Hg

Pressure

1023.0 hPa